sensor_id;sensor_type;location;lat;lon;timestamp;P1;durP1;ratioP1;P2;durP2;ratioP2
69979;SDS011;57318;56.232;43.944;2023-05-16T00:00:03;6.87;;;3.43;;
69979;SDS011;57318;56.232;43.944;2023-05-16T00:02:34;5.38;;;3.35;;
69979;SDS011;57318;56.232;43.944;2023-05-16T00:05:04;5.15;;;3.15;;
69979;SDS011;57318;56.232;43.944;2023-05-16T00:07:32;3.72;;;2.60;;
69979;SDS011;57318;56.232;43.944;2023-05-16T00:09:59;3.92;;;2.40;;
69979;SDS011;57318;56.232;43.944;2023-05-16T00:12:25;4.32;;;2.22;;
69979;SDS011;57318;56.232;43.944;2023-05-16T00:14:52;5.80;;;3.00;;
69979;SDS011;57318;56.232;43.944;2023-05-16T00:17:18;6.43;;;3.00;;
69979;SDS011;57318;56.232;43.944;2023-05-16T00:19:45;6.85;;;3.22;;
69979;SDS011;57318;56.232;43.944;2023-05-16T00:22:18;6.57;;;3.30;;
69979;SDS011;57318;56.232;43.944;2023-05-16T00:24:44;6.83;;;2.90;;
69979;SDS011;57318;56.232;43.944;2023-05-16T00:27:10;6.88;;;2.60;;
69979;SDS011;57318;56.232;43.944;2023-05-16T00:29:36;3.43;;;2.00;;
69979;SDS011;57318;56.232;43.944;2023-05-16T00:32:02;4.23;;;1.90;;
69979;SDS011;57318;56.232;43.944;2023-05-16T00:34:27;3.83;;;2.10;;
69979;SDS011;57318;56.232;43.944;2023-05-16T00:36:53;3.53;;;1.70;;
69979;SDS011;57318;56.232;43.944;2023-05-16T00:39:19;5.53;;;1.93;;
69979;SDS011;57318;56.232;43.944;2023-05-16T00:41:45;3.30;;;1.90;;
69979;SDS011;57318;56.232;43.944;2023-05-16T00:44:11;1.73;;;1.47;;
69979;SDS011;57318;56.232;43.944;2023-05-16T00:46:37;3.93;;;1.60;;
69979;SDS011;57318;56.232;43.944;2023-05-16T00:49:02;4.43;;;2.27;;
69979;SDS011;57318;56.232;43.944;2023-05-16T00:51:29;4.50;;;1.80;;
69979;SDS011;57318;56.232;43.944;2023-05-16T00:53:55;3.03;;;1.80;;
69979;SDS011;57318;56.232;43.944;2023-05-16T00:56:21;4.45;;;1.90;;
69979;SDS011;57318;56.232;43.944;2023-05-16T00:58:47;3.50;;;2.28;;
69979;SDS011;57318;56.232;43.944;2023-05-16T01:03:41;2.60;;;1.85;;
69979;SDS011;57318;56.232;43.944;2023-05-16T01:06:11;3.10;;;2.13;;
69979;SDS011;57318;56.232;43.944;2023-05-16T01:08:37;4.87;;;2.20;;
69979;SDS011;57318;56.232;43.944;2023-05-16T01:16:52;2.55;;;1.95;;
69979;SDS011;57318;56.232;43.944;2023-05-16T01:22:29;2.35;;;1.90;;
69979;SDS011;57318;56.232;43.944;2023-05-16T01:27:41;2.88;;;2.00;;
69979;SDS011;57318;56.232;43.944;2023-05-16T01:30:18;2.25;;;1.70;;
69979;SDS011;57318;56.232;43.944;2023-05-16T01:32:45;3.30;;;1.38;;
69979;SDS011;57318;56.232;43.944;2023-05-16T01:35:11;1.83;;;1.40;;
69979;SDS011;57318;56.232;43.944;2023-05-16T01:40:24;1.48;;;1.38;;
69979;SDS011;57318;56.232;43.944;2023-05-16T01:43:12;1.80;;;1.50;;
69979;SDS011;57318;56.232;43.944;2023-05-16T01:45:44;1.73;;;1.30;;
69979;SDS011;57318;56.232;43.944;2023-05-16T01:48:20;4.30;;;1.58;;
69979;SDS011;57318;56.232;43.944;2023-05-16T01:50:48;1.80;;;1.48;;
69979;SDS011;57318;56.232;43.944;2023-05-16T01:53:32;1.42;;;1.30;;
69979;SDS011;57318;56.232;43.944;2023-05-16T01:56:02;1.42;;;1.33;;
69979;SDS011;57318;56.232;43.944;2023-05-16T01:58:30;2.92;;;1.38;;
69979;SDS011;57318;56.232;43.944;2023-05-16T02:00:59;3.17;;;1.50;;
69979;SDS011;57318;56.232;43.944;2023-05-16T02:03:28;2.97;;;1.40;;
69979;SDS011;57318;56.232;43.944;2023-05-16T02:05:55;1.52;;;1.40;;
69979;SDS011;57318;56.232;43.944;2023-05-16T02:08:21;1.48;;;1.30;;
69979;SDS011;57318;56.232;43.944;2023-05-16T02:10:47;2.25;;;1.50;;
69979;SDS011;57318;56.232;43.944;2023-05-16T02:13:13;1.73;;;1.33;;
69979;SDS011;57318;56.232;43.944;2023-05-16T02:15:39;1.47;;;1.33;;
69979;SDS011;57318;56.232;43.944;2023-05-16T02:18:05;1.73;;;1.13;;
69979;SDS011;57318;56.232;43.944;2023-05-16T02:20:30;2.00;;;1.40;;
69979;SDS011;57318;56.232;43.944;2023-05-16T02:22:57;5.18;;;1.60;;
69979;SDS011;57318;56.232;43.944;2023-05-16T02:25:23;2.43;;;1.40;;
69979;SDS011;57318;56.232;43.944;2023-05-16T02:27:48;1.53;;;1.43;;
69979;SDS011;57318;56.232;43.944;2023-05-16T02:30:14;1.60;;;1.50;;
69979;SDS011;57318;56.232;43.944;2023-05-16T02:32:40;1.80;;;1.60;;
69979;SDS011;57318;56.232;43.944;2023-05-16T02:35:09;3.58;;;1.92;;
69979;SDS011;57318;56.232;43.944;2023-05-16T02:37:35;6.57;;;1.90;;
69979;SDS011;57318;56.232;43.944;2023-05-16T02:40:02;4.90;;;2.03;;
69979;SDS011;57318;56.232;43.944;2023-05-16T02:42:30;4.38;;;2.30;;
69979;SDS011;57318;56.232;43.944;2023-05-16T02:44:56;2.47;;;2.20;;
69979;SDS011;57318;56.232;43.944;2023-05-16T02:47:22;3.23;;;1.87;;
69979;SDS011;57318;56.232;43.944;2023-05-16T02:49:48;4.97;;;1.90;;
69979;SDS011;57318;56.232;43.944;2023-05-16T02:52:13;8.20;;;1.83;;
69979;SDS011;57318;56.232;43.944;2023-05-16T02:54:39;2.17;;;1.77;;
69979;SDS011;57318;56.232;43.944;2023-05-16T02:57:05;3.70;;;1.83;;
69979;SDS011;57318;56.232;43.944;2023-05-16T02:59:30;1.77;;;1.60;;
69979;SDS011;57318;56.232;43.944;2023-05-16T03:01:56;2.07;;;1.77;;
69979;SDS011;57318;56.232;43.944;2023-05-16T03:04:22;6.93;;;2.30;;
69979;SDS011;57318;56.232;43.944;2023-05-16T03:06:48;4.90;;;1.53;;
69979;SDS011;57318;56.232;43.944;2023-05-16T03:09:15;2.38;;;1.70;;
69979;SDS011;57318;56.232;43.944;2023-05-16T03:11:41;2.88;;;1.42;;
69979;SDS011;57318;56.232;43.944;2023-05-16T03:14:07;3.97;;;1.67;;
69979;SDS011;57318;56.232;43.944;2023-05-16T03:16:33;7.65;;;2.28;;
69979;SDS011;57318;56.232;43.944;2023-05-16T03:19:01;3.47;;;1.42;;
69979;SDS011;57318;56.232;43.944;2023-05-16T03:21:27;5.05;;;1.85;;
69979;SDS011;57318;56.232;43.944;2023-05-16T03:23:53;2.93;;;2.10;;
69979;SDS011;57318;56.232;43.944;2023-05-16T03:26:19;4.05;;;1.70;;
69979;SDS011;57318;56.232;43.944;2023-05-16T03:28:47;8.90;;;1.90;;
69979;SDS011;57318;56.232;43.944;2023-05-16T03:31:13;12.77;;;2.47;;
69979;SDS011;57318;56.232;43.944;2023-05-16T03:33:39;11.10;;;1.80;;
69979;SDS011;57318;56.232;43.944;2023-05-16T03:36:05;11.37;;;2.50;;
69979;SDS011;57318;56.232;43.944;2023-05-16T03:38:31;14.23;;;2.53;;
69979;SDS011;57318;56.232;43.944;2023-05-16T03:40:57;12.53;;;2.43;;
69979;SDS011;57318;56.232;43.944;2023-05-16T03:43:23;18.77;;;2.47;;
69979;SDS011;57318;56.232;43.944;2023-05-16T03:45:48;5.87;;;2.20;;
69979;SDS011;57318;56.232;43.944;2023-05-16T03:48:14;8.93;;;2.83;;
69979;SDS011;57318;56.232;43.944;2023-05-16T03:50:40;6.53;;;2.10;;
69979;SDS011;57318;56.232;43.944;2023-05-16T03:53:07;15.02;;;2.20;;
69979;SDS011;57318;56.232;43.944;2023-05-16T03:55:33;14.75;;;2.33;;
69979;SDS011;57318;56.232;43.944;2023-05-16T03:57:59;12.02;;;2.65;;
69979;SDS011;57318;56.232;43.944;2023-05-16T04:00:25;10.03;;;2.10;;
69979;SDS011;57318;56.232;43.944;2023-05-16T04:02:51;4.32;;;1.80;;
69979;SDS011;57318;56.232;43.944;2023-05-16T04:05:17;6.63;;;2.07;;
69979;SDS011;57318;56.232;43.944;2023-05-16T04:07:43;8.70;;;2.30;;
69979;SDS011;57318;56.232;43.944;2023-05-16T04:10:09;3.43;;;2.30;;
69979;SDS011;57318;56.232;43.944;2023-05-16T04:12:35;5.68;;;1.60;;
69979;SDS011;57318;56.232;43.944;2023-05-16T04:15:02;5.57;;;1.90;;
69979;SDS011;57318;56.232;43.944;2023-05-16T04:17:30;9.18;;;1.95;;
69979;SDS011;57318;56.232;43.944;2023-05-16T04:19:56;11.33;;;2.00;;
69979;SDS011;57318;56.232;43.944;2023-05-16T04:22:22;6.43;;;2.33;;
69979;SDS011;57318;56.232;43.944;2023-05-16T04:24:48;7.40;;;2.73;;
69979;SDS011;57318;56.232;43.944;2023-05-16T04:27:14;5.03;;;2.30;;
69979;SDS011;57318;56.232;43.944;2023-05-16T04:29:40;6.22;;;2.70;;
69979;SDS011;57318;56.232;43.944;2023-05-16T04:32:06;9.80;;;2.60;;
69979;SDS011;57318;56.232;43.944;2023-05-16T04:34:32;6.43;;;2.50;;
69979;SDS011;57318;56.232;43.944;2023-05-16T04:37:04;5.68;;;2.30;;
69979;SDS011;57318;56.232;43.944;2023-05-16T04:39:32;4.28;;;2.30;;
69979;SDS011;57318;56.232;43.944;2023-05-16T04:41:59;4.97;;;2.28;;
69979;SDS011;57318;56.232;43.944;2023-05-16T04:44:26;4.20;;;2.67;;
69979;SDS011;57318;56.232;43.944;2023-05-16T04:46:52;6.35;;;2.20;;
69979;SDS011;57318;56.232;43.944;2023-05-16T04:49:19;5.18;;;2.60;;
69979;SDS011;57318;56.232;43.944;2023-05-16T04:51:45;9.02;;;2.55;;
69979;SDS011;57318;56.232;43.944;2023-05-16T04:54:12;3.47;;;2.20;;
69979;SDS011;57318;56.232;43.944;2023-05-16T04:56:38;3.93;;;2.10;;
69979;SDS011;57318;56.232;43.944;2023-05-16T04:59:04;4.83;;;2.00;;
69979;SDS011;57318;56.232;43.944;2023-05-16T05:01:29;6.47;;;2.27;;
69979;SDS011;57318;56.232;43.944;2023-05-16T05:03:55;4.97;;;2.07;;
69979;SDS011;57318;56.232;43.944;2023-05-16T05:06:21;4.27;;;2.13;;
69979;SDS011;57318;56.232;43.944;2023-05-16T05:08:47;6.40;;;1.80;;
69979;SDS011;57318;56.232;43.944;2023-05-16T05:11:13;3.78;;;1.90;;
69979;SDS011;57318;56.232;43.944;2023-05-16T05:13:39;3.80;;;1.50;;
69979;SDS011;57318;56.232;43.944;2023-05-16T05:16:05;4.33;;;1.70;;
69979;SDS011;57318;56.232;43.944;2023-05-16T05:18:31;2.90;;;1.50;;
69979;SDS011;57318;56.232;43.944;2023-05-16T05:20:57;4.50;;;1.75;;
69979;SDS011;57318;56.232;43.944;2023-05-16T05:23:23;6.30;;;1.73;;
69979;SDS011;57318;56.232;43.944;2023-05-16T05:25:49;3.83;;;1.52;;
69979;SDS011;57318;56.232;43.944;2023-05-16T05:28:15;3.38;;;1.40;;
69979;SDS011;57318;56.232;43.944;2023-05-16T05:30:41;6.53;;;1.50;;
69979;SDS011;57318;56.232;43.944;2023-05-16T05:33:09;3.72;;;1.60;;
69979;SDS011;57318;56.232;43.944;2023-05-16T05:35:36;4.45;;;1.70;;
69979;SDS011;57318;56.232;43.944;2023-05-16T05:38:02;3.93;;;1.73;;
69979;SDS011;57318;56.232;43.944;2023-05-16T05:40:28;5.13;;;1.73;;
69979;SDS011;57318;56.232;43.944;2023-05-16T05:42:55;3.65;;;1.55;;
69979;SDS011;57318;56.232;43.944;2023-05-16T05:45:20;5.93;;;1.70;;
69979;SDS011;57318;56.232;43.944;2023-05-16T05:47:46;4.43;;;1.70;;
69979;SDS011;57318;56.232;43.944;2023-05-16T05:50:12;4.07;;;1.70;;
69979;SDS011;57318;56.232;43.944;2023-05-16T05:52:39;6.38;;;1.98;;
69979;SDS011;57318;56.232;43.944;2023-05-16T05:55:05;5.20;;;1.80;;
69979;SDS011;57318;56.232;43.944;2023-05-16T05:57:31;5.18;;;2.00;;
69979;SDS011;57318;56.232;43.944;2023-05-16T05:59:57;7.40;;;2.20;;
69979;SDS011;57318;56.232;43.944;2023-05-16T06:02:22;4.47;;;1.77;;
69979;SDS011;57318;56.232;43.944;2023-05-16T06:04:48;11.07;;;2.17;;
69979;SDS011;57318;56.232;43.944;2023-05-16T06:07:14;8.50;;;2.13;;
69979;SDS011;57318;56.232;43.944;2023-05-16T06:09:41;5.15;;;1.90;;
69979;SDS011;57318;56.232;43.944;2023-05-16T06:12:08;3.92;;;1.67;;
69979;SDS011;57318;56.232;43.944;2023-05-16T06:14:34;3.30;;;1.83;;
69979;SDS011;57318;56.232;43.944;2023-05-16T06:17:00;3.42;;;1.65;;
69979;SDS011;57318;56.232;43.944;2023-05-16T06:19:26;2.33;;;1.60;;
69979;SDS011;57318;56.232;43.944;2023-05-16T06:21:51;4.78;;;1.73;;
69979;SDS011;57318;56.232;43.944;2023-05-16T06:24:18;1.52;;;1.40;;
69979;SDS011;57318;56.232;43.944;2023-05-16T06:26:43;2.30;;;1.73;;
69979;SDS011;57318;56.232;43.944;2023-05-16T06:29:13;3.45;;;1.55;;
69979;SDS011;57318;56.232;43.944;2023-05-16T06:31:40;8.43;;;1.88;;
69979;SDS011;57318;56.232;43.944;2023-05-16T06:34:06;2.08;;;1.42;;
69979;SDS011;57318;56.232;43.944;2023-05-16T06:36:32;1.40;;;1.30;;
69979;SDS011;57318;56.232;43.944;2023-05-16T06:38:57;1.60;;;1.50;;
69979;SDS011;57318;56.232;43.944;2023-05-16T06:41:23;1.60;;;1.50;;
69979;SDS011;57318;56.232;43.944;2023-05-16T06:43:50;3.03;;;1.50;;
69979;SDS011;57318;56.232;43.944;2023-05-16T06:46:16;3.75;;;1.52;;
69979;SDS011;57318;56.232;43.944;2023-05-16T06:48:42;1.67;;;1.48;;
69979;SDS011;57318;56.232;43.944;2023-05-16T06:51:08;7.38;;;1.90;;
69979;SDS011;57318;56.232;43.944;2023-05-16T06:53:34;1.35;;;1.23;;
69979;SDS011;57318;56.232;43.944;2023-05-16T06:56:01;2.50;;;1.50;;
69979;SDS011;57318;56.232;43.944;2023-05-16T06:58:27;1.60;;;1.50;;
69979;SDS011;57318;56.232;43.944;2023-05-16T07:00:52;6.15;;;1.50;;
69979;SDS011;57318;56.232;43.944;2023-05-16T07:03:18;3.75;;;1.98;;
69979;SDS011;57318;56.232;43.944;2023-05-16T07:05:44;3.97;;;1.60;;
69979;SDS011;57318;56.232;43.944;2023-05-16T07:08:10;2.83;;;1.58;;
69979;SDS011;57318;56.232;43.944;2023-05-16T07:10:37;7.00;;;1.60;;
69979;SDS011;57318;56.232;43.944;2023-05-16T07:13:03;4.03;;;2.00;;
69979;SDS011;57318;56.232;43.944;2023-05-16T07:15:29;3.35;;;1.60;;
69979;SDS011;57318;56.232;43.944;2023-05-16T07:17:55;2.15;;;1.88;;
69979;SDS011;57318;56.232;43.944;2023-05-16T07:20:21;2.03;;;1.85;;
69979;SDS011;57318;56.232;43.944;2023-05-16T07:22:47;2.05;;;1.85;;
69979;SDS011;57318;56.232;43.944;2023-05-16T07:25:13;1.60;;;1.50;;
69979;SDS011;57318;56.232;43.944;2023-05-16T07:27:40;3.80;;;1.60;;
69979;SDS011;57318;56.232;43.944;2023-05-16T07:30:12;3.92;;;1.80;;
69979;SDS011;57318;56.232;43.944;2023-05-16T07:32:39;2.03;;;1.50;;
69979;SDS011;57318;56.232;43.944;2023-05-16T07:35:05;2.70;;;1.70;;
69979;SDS011;57318;56.232;43.944;2023-05-16T07:37:32;2.67;;;1.60;;
69979;SDS011;57318;56.232;43.944;2023-05-16T07:39:57;7.90;;;1.98;;
69979;SDS011;57318;56.232;43.944;2023-05-16T07:42:23;2.42;;;1.80;;
69979;SDS011;57318;56.232;43.944;2023-05-16T07:44:49;4.57;;;2.00;;
69979;SDS011;57318;56.232;43.944;2023-05-16T07:47:15;2.63;;;1.60;;
69979;SDS011;57318;56.232;43.944;2023-05-16T07:49:41;1.50;;;1.40;;
69979;SDS011;57318;56.232;43.944;2023-05-16T07:52:06;1.60;;;1.50;;
69979;SDS011;57318;56.232;43.944;2023-05-16T07:54:33;2.83;;;1.40;;
69979;SDS011;57318;56.232;43.944;2023-05-16T07:57:00;3.70;;;1.70;;
69979;SDS011;57318;56.232;43.944;2023-05-16T07:59:27;1.60;;;1.50;;
69979;SDS011;57318;56.232;43.944;2023-05-16T08:01:53;4.53;;;1.50;;
69979;SDS011;57318;56.232;43.944;2023-05-16T08:04:19;2.08;;;1.85;;
69979;SDS011;57318;56.232;43.944;2023-05-16T08:06:45;6.45;;;2.35;;
69979;SDS011;57318;56.232;43.944;2023-05-16T08:09:11;5.85;;;2.20;;
69979;SDS011;57318;56.232;43.944;2023-05-16T08:11:37;3.15;;;2.42;;
69979;SDS011;57318;56.232;43.944;2023-05-16T08:14:04;4.25;;;1.90;;
69979;SDS011;57318;56.232;43.944;2023-05-16T08:16:30;4.10;;;2.00;;
69979;SDS011;57318;56.232;43.944;2023-05-16T08:18:56;4.97;;;1.70;;
69979;SDS011;57318;56.232;43.944;2023-05-16T08:21:22;2.42;;;1.70;;
69979;SDS011;57318;56.232;43.944;2023-05-16T08:23:48;2.78;;;1.52;;
69979;SDS011;57318;56.232;43.944;2023-05-16T08:26:13;2.03;;;1.70;;
69979;SDS011;57318;56.232;43.944;2023-05-16T08:28:40;3.15;;;2.00;;
69979;SDS011;57318;56.232;43.944;2023-05-16T08:31:06;3.40;;;2.00;;
69979;SDS011;57318;56.232;43.944;2023-05-16T08:33:31;2.13;;;1.80;;
69979;SDS011;57318;56.232;43.944;2023-05-16T08:35:57;2.85;;;1.77;;
69979;SDS011;57318;56.232;43.944;2023-05-16T08:38:23;2.10;;;2.00;;
69979;SDS011;57318;56.232;43.944;2023-05-16T08:40:49;2.22;;;1.95;;
69979;SDS011;57318;56.232;43.944;2023-05-16T08:43:15;3.17;;;2.33;;
69979;SDS011;57318;56.232;43.944;2023-05-16T08:45:41;3.85;;;2.10;;
69979;SDS011;57318;56.232;43.944;2023-05-16T08:48:07;3.53;;;3.15;;
69979;SDS011;57318;56.232;43.944;2023-05-16T08:50:34;4.05;;;2.50;;
69979;SDS011;57318;56.232;43.944;2023-05-16T08:53:04;6.38;;;2.38;;
69979;SDS011;57318;56.232;43.944;2023-05-16T08:55:32;2.10;;;2.00;;
69979;SDS011;57318;56.232;43.944;2023-05-16T08:57:59;2.42;;;2.20;;
69979;SDS011;57318;56.232;43.944;2023-05-16T09:00:26;2.70;;;2.10;;
69979;SDS011;57318;56.232;43.944;2023-05-16T09:02:52;9.32;;;3.00;;
69979;SDS011;57318;56.232;43.944;2023-05-16T09:05:18;3.25;;;2.25;;
69979;SDS011;57318;56.232;43.944;2023-05-16T09:07:45;2.80;;;2.50;;
69979;SDS011;57318;56.232;43.944;2023-05-16T09:10:11;2.17;;;1.98;;
69979;SDS011;57318;56.232;43.944;2023-05-16T09:12:38;3.70;;;2.50;;
69979;SDS011;57318;56.232;43.944;2023-05-16T09:15:06;2.67;;;2.47;;
69979;SDS011;57318;56.232;43.944;2023-05-16T09:17:37;2.95;;;2.17;;
69979;SDS011;57318;56.232;43.944;2023-05-16T09:20:09;8.95;;;2.90;;
69979;SDS011;57318;56.232;43.944;2023-05-16T09:22:36;3.55;;;2.47;;
69979;SDS011;57318;56.232;43.944;2023-05-16T09:25:02;2.42;;;2.10;;
69979;SDS011;57318;56.232;43.944;2023-05-16T09:27:30;2.83;;;2.60;;
69979;SDS011;57318;56.232;43.944;2023-05-16T09:29:57;3.72;;;2.78;;
69979;SDS011;57318;56.232;43.944;2023-05-16T09:32:23;3.55;;;2.00;;
69979;SDS011;57318;56.232;43.944;2023-05-16T09:34:51;2.85;;;2.17;;
69979;SDS011;57318;56.232;43.944;2023-05-16T09:37:18;2.10;;;2.00;;
69979;SDS011;57318;56.232;43.944;2023-05-16T09:39:48;2.85;;;2.03;;
69979;SDS011;57318;56.232;43.944;2023-05-16T09:42:16;2.70;;;2.17;;
69979;SDS011;57318;56.232;43.944;2023-05-16T09:44:46;2.30;;;2.10;;
69979;SDS011;57318;56.232;43.944;2023-05-16T09:47:19;3.53;;;2.30;;
69979;SDS011;57318;56.232;43.944;2023-05-16T09:49:46;4.70;;;2.80;;
69979;SDS011;57318;56.232;43.944;2023-05-16T09:52:16;2.92;;;2.63;;
69979;SDS011;57318;56.232;43.944;2023-05-16T09:54:42;2.85;;;2.65;;
69979;SDS011;57318;56.232;43.944;2023-05-16T09:57:07;3.83;;;2.42;;
69979;SDS011;57318;56.232;43.944;2023-05-16T09:59:37;2.70;;;2.50;;
69979;SDS011;57318;56.232;43.944;2023-05-16T10:02:04;8.77;;;2.53;;
69979;SDS011;57318;56.232;43.944;2023-05-16T10:04:34;2.40;;;2.10;;
69979;SDS011;57318;56.232;43.944;2023-05-16T10:07:03;2.85;;;2.22;;
69979;SDS011;57318;56.232;43.944;2023-05-16T10:09:31;4.15;;;2.47;;
69979;SDS011;57318;56.232;43.944;2023-05-16T10:11:59;3.58;;;2.83;;
69979;SDS011;57318;56.232;43.944;2023-05-16T10:14:34;3.75;;;2.60;;
69979;SDS011;57318;56.232;43.944;2023-05-16T10:17:08;5.15;;;2.70;;
69979;SDS011;57318;56.232;43.944;2023-05-16T10:19:37;2.70;;;2.40;;
69979;SDS011;57318;56.232;43.944;2023-05-16T10:22:04;4.05;;;2.80;;
69979;SDS011;57318;56.232;43.944;2023-05-16T10:24:47;2.42;;;2.28;;
69979;SDS011;57318;56.232;43.944;2023-05-16T10:27:35;2.50;;;2.30;;
69979;SDS011;57318;56.232;43.944;2023-05-16T10:30:01;2.55;;;2.35;;
69979;SDS011;57318;56.232;43.944;2023-05-16T10:32:30;4.57;;;2.58;;
69979;SDS011;57318;56.232;43.944;2023-05-16T10:34:56;2.80;;;2.25;;
69979;SDS011;57318;56.232;43.944;2023-05-16T10:37:24;2.20;;;2.00;;
69979;SDS011;57318;56.232;43.944;2023-05-16T10:39:51;3.05;;;2.22;;
69979;SDS011;57318;56.232;43.944;2023-05-16T10:42:18;2.65;;;2.00;;
69979;SDS011;57318;56.232;43.944;2023-05-16T10:44:44;5.32;;;2.42;;
69979;SDS011;57318;56.232;43.944;2023-05-16T10:47:10;3.25;;;2.60;;
69979;SDS011;57318;56.232;43.944;2023-05-16T10:49:39;5.53;;;2.50;;
69979;SDS011;57318;56.232;43.944;2023-05-16T10:52:09;2.50;;;2.30;;
69979;SDS011;57318;56.232;43.944;2023-05-16T10:54:37;2.75;;;2.55;;
69979;SDS011;57318;56.232;43.944;2023-05-16T10:57:08;2.38;;;2.10;;
69979;SDS011;57318;56.232;43.944;2023-05-16T10:59:43;3.28;;;2.47;;
69979;SDS011;57318;56.232;43.944;2023-05-16T11:02:20;4.88;;;2.53;;
69979;SDS011;57318;56.232;43.944;2023-05-16T11:04:48;2.08;;;1.98;;
69979;SDS011;57318;56.232;43.944;2023-05-16T11:07:19;2.13;;;2.00;;
69979;SDS011;57318;56.232;43.944;2023-05-16T11:10:01;3.75;;;3.15;;
69979;SDS011;57318;56.232;43.944;2023-05-16T11:12:44;3.45;;;2.70;;
69979;SDS011;57318;56.232;43.944;2023-05-16T11:17:48;4.53;;;1.90;;
69979;SDS011;57318;56.232;43.944;2023-05-16T11:20:24;3.08;;;2.55;;
69979;SDS011;57318;56.232;43.944;2023-05-16T11:22:59;2.67;;;2.40;;
69979;SDS011;57318;56.232;43.944;2023-05-16T11:25:55;3.33;;;2.63;;
69979;SDS011;57318;56.232;43.944;2023-05-16T11:28:23;2.88;;;2.00;;
69979;SDS011;57318;56.232;43.944;2023-05-16T11:30:51;3.00;;;2.50;;
69979;SDS011;57318;56.232;43.944;2023-05-16T11:33:20;2.50;;;2.30;;
69979;SDS011;57318;56.232;43.944;2023-05-16T11:38:46;3.97;;;2.50;;
69979;SDS011;57318;56.232;43.944;2023-05-16T11:41:12;2.92;;;2.30;;
69979;SDS011;57318;56.232;43.944;2023-05-16T11:43:40;3.15;;;2.58;;
69979;SDS011;57318;56.232;43.944;2023-05-16T11:46:09;2.30;;;2.05;;
69979;SDS011;57318;56.232;43.944;2023-05-16T11:48:39;3.85;;;2.17;;
69979;SDS011;57318;56.232;43.944;2023-05-16T11:51:05;3.17;;;2.30;;
69979;SDS011;57318;56.232;43.944;2023-05-16T11:53:32;2.35;;;1.92;;
69979;SDS011;57318;56.232;43.944;2023-05-16T11:55:58;2.63;;;2.42;;
69979;SDS011;57318;56.232;43.944;2023-05-16T11:58:26;5.97;;;4.30;;
69979;SDS011;57318;56.232;43.944;2023-05-16T12:00:53;2.60;;;2.40;;
69979;SDS011;57318;56.232;43.944;2023-05-16T12:05:51;8.88;;;2.70;;
69979;SDS011;57318;56.232;43.944;2023-05-16T12:08:18;7.60;;;2.80;;
69979;SDS011;57318;56.232;43.944;2023-05-16T12:10:49;2.83;;;2.47;;
69979;SDS011;57318;56.232;43.944;2023-05-16T12:13:17;4.50;;;2.10;;
69979;SDS011;57318;56.232;43.944;2023-05-16T12:15:44;6.13;;;2.53;;
69979;SDS011;57318;56.232;43.944;2023-05-16T12:18:10;2.67;;;2.40;;
69979;SDS011;57318;56.232;43.944;2023-05-16T12:20:37;3.25;;;2.95;;
69979;SDS011;57318;56.232;43.944;2023-05-16T12:23:03;2.63;;;2.42;;
69979;SDS011;57318;56.232;43.944;2023-05-16T12:25:29;3.70;;;2.65;;
69979;SDS011;57318;56.232;43.944;2023-05-16T12:27:58;5.13;;;2.63;;
69979;SDS011;57318;56.232;43.944;2023-05-16T12:30:26;3.00;;;2.50;;
69979;SDS011;57318;56.232;43.944;2023-05-16T12:33:02;6.05;;;3.17;;
69979;SDS011;57318;56.232;43.944;2023-05-16T12:35:39;5.10;;;2.80;;
69979;SDS011;57318;56.232;43.944;2023-05-16T12:38:07;4.60;;;2.53;;
69979;SDS011;57318;56.232;43.944;2023-05-16T12:40:38;3.17;;;2.55;;
69979;SDS011;57318;56.232;43.944;2023-05-16T12:43:12;2.60;;;2.40;;
69979;SDS011;57318;56.232;43.944;2023-05-16T12:45:50;2.63;;;2.42;;
69979;SDS011;57318;56.232;43.944;2023-05-16T12:48:17;2.67;;;2.47;;
69979;SDS011;57318;56.232;43.944;2023-05-16T12:50:43;3.83;;;2.53;;
69979;SDS011;57318;56.232;43.944;2023-05-16T12:53:14;5.50;;;2.53;;
69979;SDS011;57318;56.232;43.944;2023-05-16T12:55:41;2.35;;;2.20;;
69979;SDS011;57318;56.232;43.944;2023-05-16T12:58:08;3.63;;;2.50;;
69979;SDS011;57318;56.232;43.944;2023-05-16T13:00:35;2.60;;;2.40;;
69979;SDS011;57318;56.232;43.944;2023-05-16T13:03:02;6.25;;;2.80;;
69979;SDS011;57318;56.232;43.944;2023-05-16T13:05:29;3.78;;;2.40;;
69979;SDS011;57318;56.232;43.944;2023-05-16T13:07:55;5.30;;;3.38;;
69979;SDS011;57318;56.232;43.944;2023-05-16T13:10:21;4.00;;;3.05;;
69979;SDS011;57318;56.232;43.944;2023-05-16T13:12:47;4.05;;;3.05;;
69979;SDS011;57318;56.232;43.944;2023-05-16T13:15:13;4.45;;;2.40;;
69979;SDS011;57318;56.232;43.944;2023-05-16T13:17:40;9.52;;;3.50;;
69979;SDS011;57318;56.232;43.944;2023-05-16T13:20:11;3.22;;;2.40;;
69979;SDS011;57318;56.232;43.944;2023-05-16T13:22:42;3.00;;;2.50;;
69979;SDS011;57318;56.232;43.944;2023-05-16T13:25:09;2.55;;;2.35;;
69979;SDS011;57318;56.232;43.944;2023-05-16T13:27:35;2.80;;;2.40;;
69979;SDS011;57318;56.232;43.944;2023-05-16T13:30:01;4.28;;;2.47;;
69979;SDS011;57318;56.232;43.944;2023-05-16T13:32:36;2.67;;;2.40;;
69979;SDS011;57318;56.232;43.944;2023-05-16T13:35:02;7.60;;;4.28;;
69979;SDS011;57318;56.232;43.944;2023-05-16T13:37:30;4.30;;;3.63;;
69979;SDS011;57318;56.232;43.944;2023-05-16T13:39:56;2.50;;;2.28;;
69979;SDS011;57318;56.232;43.944;2023-05-16T13:42:22;12.10;;;3.50;;
69979;SDS011;57318;56.232;43.944;2023-05-16T13:44:48;3.50;;;2.70;;
69979;SDS011;57318;56.232;43.944;2023-05-16T13:47:14;10.48;;;2.97;;
69979;SDS011;57318;56.232;43.944;2023-05-16T13:49:40;5.90;;;2.70;;
69979;SDS011;57318;56.232;43.944;2023-05-16T13:52:06;6.18;;;2.55;;
69979;SDS011;57318;56.232;43.944;2023-05-16T13:54:32;4.00;;;2.75;;
69979;SDS011;57318;56.232;43.944;2023-05-16T13:56:57;4.07;;;2.78;;
69979;SDS011;57318;56.232;43.944;2023-05-16T13:59:23;4.72;;;2.47;;
69979;SDS011;57318;56.232;43.944;2023-05-16T14:01:50;3.05;;;2.38;;
69979;SDS011;57318;56.232;43.944;2023-05-16T14:04:15;3.92;;;2.50;;
69979;SDS011;57318;56.232;43.944;2023-05-16T14:06:41;3.10;;;2.50;;
69979;SDS011;57318;56.232;43.944;2023-05-16T14:09:07;3.00;;;2.30;;
69979;SDS011;57318;56.232;43.944;2023-05-16T14:11:33;4.30;;;2.30;;
69979;SDS011;57318;56.232;43.944;2023-05-16T14:13:59;16.35;;;2.70;;
69979;SDS011;57318;56.232;43.944;2023-05-16T14:16:25;4.35;;;2.10;;
69979;SDS011;57318;56.232;43.944;2023-05-16T14:18:51;4.10;;;2.30;;
69979;SDS011;57318;56.232;43.944;2023-05-16T14:21:17;4.03;;;2.47;;
69979;SDS011;57318;56.232;43.944;2023-05-16T14:23:42;2.78;;;2.20;;
69979;SDS011;57318;56.232;43.944;2023-05-16T14:26:08;2.42;;;2.22;;
69979;SDS011;57318;56.232;43.944;2023-05-16T14:28:34;4.85;;;2.65;;
69979;SDS011;57318;56.232;43.944;2023-05-16T14:31:00;3.88;;;2.47;;
69979;SDS011;57318;56.232;43.944;2023-05-16T14:33:26;4.03;;;2.72;;
69979;SDS011;57318;56.232;43.944;2023-05-16T14:35:52;5.70;;;2.83;;
69979;SDS011;57318;56.232;43.944;2023-05-16T14:38:18;7.45;;;2.90;;
69979;SDS011;57318;56.232;43.944;2023-05-16T14:40:45;4.53;;;2.58;;
69979;SDS011;57318;56.232;43.944;2023-05-16T14:43:11;2.70;;;2.47;;
69979;SDS011;57318;56.232;43.944;2023-05-16T14:48:06;8.23;;;3.42;;
69979;SDS011;57318;56.232;43.944;2023-05-16T14:52:57;8.95;;;3.20;;
69979;SDS011;57318;56.232;43.944;2023-05-16T14:57:48;3.38;;;2.70;;
69979;SDS011;57318;56.232;43.944;2023-05-16T15:02:41;3.27;;;2.47;;
69979;SDS011;57318;56.232;43.944;2023-05-16T15:05:07;27.98;;;4.78;;
69979;SDS011;57318;56.232;43.944;2023-05-16T15:07:33;11.45;;;3.58;;